createdAt,value
2018-01-29T00:00:19.707Z,101218.74
2018-01-29T00:02:48.979Z,101224.27
2018-01-29T00:05:17.647Z,101224.08
2018-01-29T00:07:46.205Z,101229.70
2018-01-29T00:10:14.708Z,101230.70
2018-01-29T00:12:43.347Z,101224.17
2018-01-29T00:15:12.696Z,101221.95
2018-01-29T00:17:41.255Z,101231.19
2018-01-29T00:20:09.806Z,101228.66
2018-01-29T00:22:39.073Z,101223.11
2018-01-29T00:25:07.636Z,101232.51
2018-01-29T00:27:36.175Z,101238.28
2018-01-29T00:30:04.685Z,101232.11
2018-01-29T00:32:33.236Z,101227.41
2018-01-29T00:35:02.612Z,101228.64
2018-01-29T00:37:31.944Z,101216.98
2018-01-29T00:40:00.508Z,101222.58
2018-01-29T00:42:30.222Z,101218.03
2018-01-29T00:44:59.545Z,101217.67
2018-01-29T00:47:28.048Z,101208.74
2018-01-29T00:49:56.601Z,101210.14
2018-01-29T00:52:25.127Z,101216.16
2018-01-29T00:54:53.664Z,101209.14
2018-01-29T00:57:22.427Z,101203.21
2018-01-29T00:59:50.927Z,101212.41
2018-01-29T01:02:20.249Z,101200.34
2018-01-29T01:04:48.792Z,101210.55
2018-01-29T01:07:17.291Z,101207.30
2018-01-29T01:09:46.620Z,101200.28
2018-01-29T01:12:15.466Z,101193.12
2018-01-29T01:14:43.973Z,101188.67
2018-01-29T01:17:13.235Z,101183.99
2018-01-29T01:19:41.871Z,101174.38
2018-01-29T01:22:10.452Z,101167.66
2018-01-29T01:24:38.946Z,101168.40
2018-01-29T01:27:07.551Z,101158.80
2018-01-29T01:29:36.055Z,101147.94
2018-01-29T01:32:04.612Z,101140.28
2018-01-29T01:34:33.335Z,101138.06
2018-01-29T01:37:01.885Z,101141.54
2018-01-29T01:39:30.366Z,101140.43
2018-01-29T01:41:58.895Z,101141.11
2018-01-29T01:44:28.147Z,101136.47
2018-01-29T01:46:56.619Z,101145.13
2018-01-29T01:49:31.954Z,101151.24
2018-01-29T01:52:00.515Z,101150.06
2018-01-29T01:54:29.060Z,101171.02
2018-01-29T01:56:57.852Z,101185.16
2018-01-29T01:59:27.846Z,101187.08
2018-01-29T02:01:56.346Z,101170.69
2018-01-29T02:04:24.889Z,101178.69
2018-01-29T02:06:53.435Z,101177.46
2018-01-29T02:09:22.703Z,101179.44
2018-01-29T02:11:51.235Z,101192.29
2018-01-29T02:14:19.726Z,101183.70
2018-01-29T02:16:48.207Z,101187.31
2018-01-29T02:19:16.739Z,101196.28
2018-01-29T02:21:45.247Z,101195.27
2018-01-29T02:24:14.503Z,101176.50
2018-01-29T02:26:43.075Z,101173.68
2018-01-29T02:29:11.559Z,101175.07
2018-01-29T02:31:40.051Z,101169.01
2018-01-29T02:34:08.589Z,101162.70
2018-01-29T02:36:37.101Z,101159.02
2018-01-29T02:39:05.611Z,101156.92
2018-01-29T02:41:34.163Z,101151.00
2018-01-29T02:44:02.729Z,101150.16
2018-01-29T02:46:31.292Z,101148.56
2018-01-29T02:48:59.855Z,101150.70
2018-01-29T02:51:29.123Z,101152.51
2018-01-29T02:53:57.627Z,101159.34
2018-01-29T02:56:27.092Z,101161.88
2018-01-29T02:58:55.591Z,101158.18
2018-01-29T03:01:24.846Z,101151.69
2018-01-29T03:03:53.703Z,101147.59
2018-01-29T03:06:22.260Z,101148.11
2018-01-29T03:08:50.746Z,101147.75
2018-01-29T03:11:19.659Z,101143.30
2018-01-29T03:13:48.923Z,101133.71
2018-01-29T03:16:17.412Z,101146.17
2018-01-29T03:18:46.364Z,101155.68
2018-01-29T03:21:14.912Z,101159.47
2018-01-29T03:23:43.403Z,101150.69
2018-01-29T03:26:12.762Z,101141.34
2018-01-29T03:28:41.246Z,101150.55
2018-01-29T03:31:09.742Z,101153.22
2018-01-29T03:33:38.271Z,101151.41
2018-01-29T03:36:07.516Z,101153.13
2018-01-29T03:38:35.990Z,101152.19
2018-01-29T03:41:04.534Z,101139.86
2018-01-29T03:43:33.085Z,101145.73
2018-01-29T03:46:01.569Z,101135.30
2018-01-29T03:48:31.036Z,101137.17
2018-01-29T03:50:59.515Z,101121.31
2018-01-29T03:53:27.995Z,101125.72
2018-01-29T03:55:56.521Z,101124.64
2018-01-29T03:58:25.771Z,101130.77
2018-01-29T04:00:54.334Z,101132.48
2018-01-29T04:03:23.091Z,101136.18
2018-01-29T04:05:51.639Z,101133.67
2018-01-29T04:08:20.170Z,101142.58
2018-01-29T04:10:49.481Z,101141.05
2018-01-29T04:13:18.032Z,101130.92
2018-01-29T04:15:48.031Z,101132.48
2018-01-29T04:18:16.735Z,101135.05
2018-01-29T04:20:45.220Z,101125.48
2018-01-29T04:23:13.707Z,101128.25
2018-01-29T04:25:43.154Z,101127.28
2018-01-29T04:28:11.639Z,101137.81
2018-01-29T04:30:40.147Z,101142.94
2018-01-29T04:33:08.835Z,101138.84
2018-01-29T04:35:37.397Z,101136.00
2018-01-29T04:38:05.943Z,101144.31
2018-01-29T04:40:35.489Z,101145.70
2018-01-29T04:43:03.983Z,101140.25
2018-01-29T04:45:33.439Z,101130.65
2018-01-29T04:48:01.967Z,101120.29
2018-01-29T04:50:30.472Z,101113.81
2018-01-29T04:52:59.819Z,101115.55
2018-01-29T04:55:28.563Z,101116.95
2018-01-29T04:57:57.060Z,101121.27
2018-01-29T05:00:26.315Z,101122.14
2018-01-29T05:02:54.911Z,101133.36
2018-01-29T05:05:23.403Z,101137.13
2018-01-29T05:07:51.957Z,101129.38
2018-01-29T05:10:20.731Z,101110.74
2018-01-29T05:12:49.280Z,101107.38
2018-01-29T05:15:18.599Z,101115.11
2018-01-29T05:17:47.473Z,101120.13
2018-01-29T05:20:16.820Z,101118.49
2018-01-29T05:22:45.315Z,101114.80
2018-01-29T05:25:14.019Z,101111.01
2018-01-29T05:27:42.512Z,101122.66
2018-01-29T05:30:11.043Z,101128.73
2018-01-29T05:32:39.770Z,101138.77
2018-01-29T05:38:17.455Z,101127.63
2018-01-29T05:40:46.009Z,101126.13
2018-01-29T05:43:14.495Z,101121.02
2018-01-29T05:45:43.047Z,101123.92
2018-01-29T05:48:11.619Z,101127.55
2018-01-29T05:50:40.128Z,101128.69
2018-01-29T05:53:08.762Z,101132.00
2018-01-29T05:55:38.016Z,101131.00
2018-01-29T05:58:06.515Z,101131.94
2018-01-29T06:00:35.051Z,101128.83
2018-01-29T06:03:03.560Z,101130.52
2018-01-29T06:05:32.067Z,101143.73
2018-01-29T06:08:00.607Z,101142.77
2018-01-29T06:10:29.094Z,101144.16
2018-01-29T06:12:57.591Z,101150.69
2018-01-29T06:15:26.187Z,101142.39
2018-01-29T06:17:54.735Z,101141.06
2018-01-29T06:20:23.283Z,101140.07
2018-01-29T06:22:52.619Z,101136.30
2018-01-29T06:25:21.100Z,101135.70
2018-01-29T06:27:49.604Z,101135.88
2018-01-29T06:30:18.142Z,101133.45
2018-01-29T06:32:46.642Z,101134.09
2018-01-29T06:35:15.187Z,101133.16
2018-01-29T06:37:45.288Z,101147.47
2018-01-29T06:40:13.846Z,101132.17
2018-01-29T06:42:42.922Z,101142.24
2018-01-29T06:45:11.455Z,101131.98
2018-01-29T06:47:40.041Z,101125.45
2018-01-29T06:50:08.526Z,101124.24
2018-01-29T06:52:38.088Z,101126.52
2018-01-29T06:55:06.620Z,101124.10
2018-01-29T06:57:35.267Z,101127.27
2018-01-29T07:00:03.988Z,101121.20
2018-01-29T07:02:33.244Z,101123.20
2018-01-29T07:05:01.733Z,101112.65
2018-01-29T07:07:30.520Z,101118.71
2018-01-29T07:09:59.819Z,101108.59
2018-01-29T07:12:28.458Z,101118.70
2018-01-29T07:14:58.121Z,101115.73
2018-01-29T07:17:26.807Z,101104.76
2018-01-29T07:19:55.307Z,101101.18
2018-01-29T07:22:24.098Z,101094.09
2018-01-29T07:24:52.755Z,101105.34
2018-01-29T07:27:22.163Z,101104.25
2018-01-29T07:29:50.695Z,101092.67
2018-01-29T07:32:20.100Z,101098.91
2018-01-29T07:34:49.550Z,101099.97
2018-01-29T07:37:18.471Z,101110.09
2018-01-29T07:39:49.358Z,101101.87
2018-01-29T07:42:17.859Z,101097.95
2018-01-29T07:44:46.400Z,101088.56
2018-01-29T07:47:14.900Z,101090.02
2018-01-29T07:49:43.392Z,101087.00
2018-01-29T07:52:12.027Z,101091.59
2018-01-29T07:54:41.288Z,101081.62
2018-01-29T07:57:09.784Z,101086.73
2018-01-29T07:59:38.404Z,101074.75
2018-01-29T08:02:07.671Z,101080.23
2018-01-29T08:04:36.161Z,101078.45
2018-01-29T08:07:04.769Z,101081.45
2018-01-29T08:09:34.092Z,101090.02
2018-01-29T08:12:02.601Z,101079.98
2018-01-29T08:14:31.147Z,101078.97
2018-01-29T08:16:59.707Z,101080.35
2018-01-29T08:19:28.267Z,101075.67
2018-01-29T08:21:56.912Z,101076.33
2018-01-29T08:24:25.469Z,101073.12
2018-01-29T08:26:54.792Z,101081.86
2018-01-29T08:29:23.539Z,101079.45
2018-01-29T08:31:52.036Z,101072.50
2018-01-29T08:34:20.539Z,101075.23
2018-01-29T08:36:49.248Z,101068.23
2018-01-29T08:39:17.978Z,101070.83
2018-01-29T08:41:46.543Z,101070.90
2018-01-29T08:44:16.761Z,101069.19
2018-01-29T08:46:46.108Z,101074.42
2018-01-29T08:49:14.608Z,101077.86
2018-01-29T08:51:43.216Z,101066.30
2018-01-29T08:54:11.715Z,101068.89
2018-01-29T08:56:40.281Z,101064.64
2018-01-29T08:59:09.236Z,101076.05
2018-01-29T09:01:37.740Z,101073.69
2018-01-29T09:04:06.237Z,101062.72
2018-01-29T09:06:34.803Z,101065.50
2018-01-29T09:09:03.392Z,101059.19
2018-01-29T09:11:31.896Z,101053.73
2018-01-29T09:14:00.693Z,101058.76
2018-01-29T09:16:29.972Z,101053.84
2018-01-29T09:18:59.248Z,101053.59
2018-01-29T09:21:27.784Z,101054.11
2018-01-29T09:23:56.280Z,101050.70
2018-01-29T09:26:24.784Z,101043.03
2018-01-29T09:28:53.550Z,101038.11
2018-01-29T09:31:22.029Z,101040.66
2018-01-29T09:33:50.589Z,101033.18
2018-01-29T09:36:20.101Z,101025.79
2018-01-29T09:38:48.610Z,101025.29
2018-01-29T09:41:17.109Z,101028.79
2018-01-29T09:43:45.748Z,101031.05
2018-01-29T09:46:15.016Z,101027.26
2018-01-29T09:48:43.536Z,101021.86
2018-01-29T09:51:12.999Z,101017.59
2018-01-29T09:53:41.502Z,101018.90
2018-01-29T09:56:10.826Z,101018.97
2018-01-29T09:58:39.467Z,101009.23
2018-01-29T10:01:07.967Z,100998.25
2018-01-29T10:03:37.232Z,101006.87
2018-01-29T10:06:06.543Z,101000.79
2018-01-29T10:08:35.865Z,100993.65
2018-01-29T10:11:04.356Z,101007.25
2018-01-29T10:13:32.958Z,100995.47
2018-01-29T10:16:01.516Z,100995.63
2018-01-29T10:18:30.081Z,100985.91
2018-01-29T10:20:58.836Z,100985.55
2018-01-29T10:23:27.346Z,100976.67
2018-01-29T10:25:55.906Z,100981.10
2018-01-29T10:28:24.849Z,100957.58
2018-01-29T10:30:53.351Z,100972.52
2018-01-29T10:33:21.903Z,100967.78
2018-01-29T10:35:50.565Z,100964.91
2018-01-29T10:38:19.079Z,100959.67
2018-01-29T10:40:47.571Z,100953.20
2018-01-29T10:43:16.119Z,100949.76
2018-01-29T10:45:44.643Z,100935.59
2018-01-29T10:48:13.911Z,100931.30
2018-01-29T10:50:42.524Z,100933.02
2018-01-29T10:53:11.040Z,100929.73
2018-01-29T10:55:39.896Z,100932.77
2018-01-29T10:58:08.702Z,100919.82
2018-01-29T11:00:42.735Z,100906.36
2018-01-29T11:03:12.068Z,100910.30
2018-01-29T11:05:40.568Z,100910.91
2018-01-29T11:08:09.131Z,100895.33
2018-01-29T11:10:37.739Z,100895.45
2018-01-29T11:13:07.033Z,100885.89
2018-01-29T11:15:35.543Z,100884.88
2018-01-29T11:18:04.403Z,100879.30
2018-01-29T11:20:32.913Z,100875.16
2018-01-29T11:23:02.245Z,100874.50
2018-01-29T11:25:31.007Z,100868.11
2018-01-29T11:28:00.327Z,100865.00
2018-01-29T11:30:28.858Z,100868.53
2018-01-29T11:32:57.520Z,100858.10
2018-01-29T11:35:26.024Z,100862.39
2018-01-29T11:37:54.525Z,100850.13
2018-01-29T11:40:23.323Z,100848.38
2018-01-29T11:42:51.836Z,100847.20
2018-01-29T11:45:20.389Z,100834.59
2018-01-29T11:47:48.933Z,100836.84
2018-01-29T11:50:18.328Z,100831.75
2018-01-29T11:52:46.839Z,100825.58
2018-01-29T11:55:16.332Z,100822.63
2018-01-29T11:57:44.895Z,100833.86
2018-01-29T12:00:14.211Z,100826.36
2018-01-29T12:02:42.927Z,100825.89
2018-01-29T12:05:11.434Z,100829.48
2018-01-29T12:07:39.941Z,100823.60
2018-01-29T12:10:09.308Z,100824.67
2018-01-29T12:12:37.833Z,100822.03
2018-01-29T12:15:06.356Z,100815.00
2018-01-29T12:17:35.000Z,100811.86
2018-01-29T12:20:03.502Z,100811.94
2018-01-29T12:22:32.763Z,100802.05
2018-01-29T12:25:01.403Z,100799.17
2018-01-29T12:27:30.736Z,100794.25
2018-01-29T12:29:59.299Z,100791.06
2018-01-29T12:32:28.329Z,100793.35
2018-01-29T12:34:57.623Z,100792.84
2018-01-29T12:37:26.119Z,100788.91
2018-01-29T12:39:54.751Z,100784.31
2018-01-29T12:42:23.248Z,100779.34
2018-01-29T12:44:51.799Z,100769.83
2018-01-29T12:47:21.203Z,100769.08
2018-01-29T12:49:50.604Z,100773.45
2018-01-29T12:52:19.932Z,100767.17
2018-01-29T12:54:48.547Z,100766.07
2018-01-29T12:57:17.028Z,100769.54
2018-01-29T12:59:45.524Z,100758.67
2018-01-29T13:02:15.119Z,100760.59
2018-01-29T13:04:43.620Z,100756.45
2018-01-29T13:07:12.125Z,100752.11
2018-01-29T13:09:41.435Z,100750.58
2018-01-29T13:12:09.932Z,100749.30
2018-01-29T13:14:38.440Z,100742.22
2018-01-29T13:17:07.044Z,100748.24
2018-01-29T13:19:35.540Z,100744.14
2018-01-29T13:22:04.807Z,100736.10
2018-01-29T13:24:33.343Z,100738.94
2018-01-29T13:27:01.901Z,100737.80
2018-01-29T13:29:31.067Z,100738.96
2018-01-29T13:31:59.848Z,100749.57
2018-01-29T13:34:28.359Z,100743.30
2018-01-29T13:36:57.655Z,100741.55
2018-01-29T13:39:26.200Z,100742.50
2018-01-29T13:41:54.695Z,100738.39
2018-01-29T13:44:24.023Z,100738.36
2018-01-29T13:46:52.853Z,100737.69
2018-01-29T13:49:21.347Z,100729.66
2018-01-29T13:51:49.852Z,100731.66
2018-01-29T13:54:19.417Z,100738.20
2018-01-29T13:56:47.921Z,100729.91
2018-01-29T13:59:16.427Z,100720.23
2018-01-29T14:01:45.795Z,100727.13
2018-01-29T14:04:14.287Z,100721.55
2018-01-29T14:06:42.852Z,100724.12
2018-01-29T14:09:11.501Z,100715.81
2018-01-29T14:11:39.995Z,100715.32
2018-01-29T14:14:08.509Z,100713.80
2018-01-29T14:16:37.134Z,100715.83
2018-01-29T14:19:06.467Z,100716.34
2018-01-29T14:21:35.062Z,100716.05
2018-01-29T14:24:03.606Z,100715.03
2018-01-29T14:26:32.199Z,100717.14
2018-01-29T14:29:00.768Z,100718.66
2018-01-29T14:31:29.316Z,100712.95
2018-01-29T14:33:57.863Z,100715.36
2018-01-29T14:36:26.371Z,100720.92
2018-01-29T14:38:54.927Z,100721.59
2018-01-29T14:41:23.431Z,100728.33
2018-01-29T14:43:51.940Z,100733.67
2018-01-29T14:46:20.783Z,100733.62
2018-01-29T14:48:50.091Z,100735.77
2018-01-29T14:51:19.359Z,100733.04
2018-01-29T14:53:48.380Z,100740.72
2018-01-29T14:56:17.712Z,100739.38
2018-01-29T14:58:46.215Z,100736.94
2018-01-29T15:01:14.828Z,100734.47
2018-01-29T15:03:44.091Z,100741.25
2018-01-29T15:06:12.663Z,100741.52
2018-01-29T15:08:41.385Z,100742.86
2018-01-29T15:11:09.887Z,100739.83
2018-01-29T15:13:38.396Z,100745.52
2018-01-29T15:16:07.707Z,100746.83
2018-01-29T15:18:36.266Z,100743.14
2018-01-29T15:21:04.767Z,100748.30
2018-01-29T15:23:33.482Z,100756.33
2018-01-29T15:26:01.992Z,100746.09
2018-01-29T15:28:30.582Z,100746.30
2018-01-29T15:30:59.732Z,100744.88
2018-01-29T15:33:28.235Z,100741.68
2018-01-29T15:35:56.809Z,100741.71
2018-01-29T15:38:25.546Z,100747.88
2018-01-29T15:40:54.105Z,100750.56
2018-01-29T15:43:22.615Z,100740.26
2018-01-29T15:45:51.504Z,100750.27
2018-01-29T15:48:19.995Z,100748.91
2018-01-29T15:50:49.267Z,100762.09
2018-01-29T15:53:17.816Z,100760.76
2018-01-29T15:55:47.093Z,100763.07
2018-01-29T15:58:15.600Z,100768.02
2018-01-29T16:00:44.502Z,100764.01
2018-01-29T16:03:12.995Z,100769.37
2018-01-29T16:05:41.497Z,100758.60
2018-01-29T16:08:10.880Z,100760.03
2018-01-29T16:10:40.153Z,100754.70
2018-01-29T16:13:08.669Z,100758.06
2018-01-29T16:15:38.384Z,100756.86
2018-01-29T16:18:07.657Z,100760.42
2018-01-29T16:20:36.156Z,100768.55
2018-01-29T16:23:05.775Z,100776.34
2018-01-29T16:25:35.115Z,100766.37
2018-01-29T16:28:03.691Z,100767.78
2018-01-29T16:30:32.527Z,100765.80
2018-01-29T16:33:01.103Z,100765.46
2018-01-29T16:35:29.615Z,100758.91
2018-01-29T16:37:59.115Z,100761.06
2018-01-29T16:40:27.615Z,100765.08
2018-01-29T16:42:56.936Z,100767.20
2018-01-29T16:45:25.787Z,100765.31
2018-01-29T16:47:54.295Z,100767.27
2018-01-29T16:50:22.816Z,100769.20
2018-01-29T16:52:51.368Z,100769.81
2018-01-29T16:55:19.869Z,100767.38
2018-01-29T16:57:48.371Z,100767.27
2018-01-29T17:00:17.746Z,100764.17
2018-01-29T17:02:46.247Z,100756.81
2018-01-29T17:05:14.750Z,100754.67
2018-01-29T17:07:44.125Z,100755.59
2018-01-29T17:10:12.652Z,100754.78
2018-01-29T17:12:41.213Z,100769.02
2018-01-29T17:15:09.770Z,100765.53
2018-01-29T17:17:39.100Z,100773.27
2018-01-29T17:20:07.604Z,100769.55
2018-01-29T17:22:36.613Z,100777.48
2018-01-29T17:25:06.770Z,100776.28
2018-01-29T17:27:35.290Z,100776.83
2018-01-29T17:30:04.689Z,100773.50
2018-01-29T17:32:33.202Z,100772.66
2018-01-29T17:35:01.723Z,100774.49
2018-01-29T17:37:31.040Z,100767.89
2018-01-29T17:39:59.600Z,100778.08
2018-01-29T17:42:28.103Z,100772.10
2018-01-29T17:44:56.710Z,100770.50
2018-01-29T17:47:26.038Z,100771.70
2018-01-29T17:49:54.552Z,100771.88
2018-01-29T17:52:23.321Z,100772.91
2018-01-29T17:54:52.585Z,100779.41
2018-01-29T17:57:21.083Z,100777.20
2018-01-29T17:59:49.801Z,100775.86
2018-01-29T18:02:19.071Z,100774.12
2018-01-29T18:04:47.608Z,100771.67
2018-01-29T18:07:16.163Z,100775.08
2018-01-29T18:09:45.423Z,100770.69
2018-01-29T18:12:13.928Z,100767.05
2018-01-29T18:14:43.311Z,100770.64
2018-01-29T18:17:11.877Z,100771.02
2018-01-29T18:19:40.376Z,100771.09
2018-01-29T18:22:08.933Z,100771.84
2018-01-29T18:24:37.424Z,100773.09
2018-01-29T18:27:05.930Z,100766.12
2018-01-29T18:29:34.548Z,100766.09
2018-01-29T18:32:03.054Z,100765.13
2018-01-29T18:34:31.544Z,100766.94
2018-01-29T18:37:00.152Z,100766.94
2018-01-29T18:39:28.647Z,100767.59
2018-01-29T18:41:57.925Z,100765.81
2018-01-29T18:44:26.708Z,100767.28
2018-01-29T18:46:55.301Z,100759.08
2018-01-29T18:49:23.815Z,100757.05
2018-01-29T18:51:53.312Z,100758.75
2018-01-29T18:54:21.871Z,100755.22
2018-01-29T18:56:50.369Z,100749.38
2018-01-29T18:59:19.256Z,100753.28
2018-01-29T19:01:47.759Z,100750.47
2018-01-29T19:04:17.028Z,100754.05
2018-01-29T19:06:45.575Z,100753.88
2018-01-29T19:09:14.137Z,100751.59
2018-01-29T19:11:42.713Z,100756.26
2018-01-29T19:14:11.361Z,100761.44
2018-01-29T19:16:41.233Z,100755.98
2018-01-29T19:19:09.737Z,100763.34
2018-01-29T19:21:38.739Z,100758.39
2018-01-29T19:24:07.223Z,100759.52
2018-01-29T19:26:35.730Z,100759.60
2018-01-29T19:29:04.267Z,100753.34
2018-01-29T19:31:32.775Z,100753.26
2018-01-29T19:34:01.348Z,100758.53
2018-01-29T19:36:29.888Z,100756.86
2018-01-29T19:38:58.428Z,100761.50
2018-01-29T19:41:27.000Z,100763.16
2018-01-29T19:43:55.607Z,100767.42
2018-01-29T19:46:24.117Z,100765.77
2018-01-29T19:48:52.621Z,100766.03
2018-01-29T19:51:21.168Z,100761.27
2018-01-29T19:53:49.736Z,100759.13
2018-01-29T19:56:18.296Z,100757.89
2018-01-29T19:58:46.908Z,100758.78
2018-01-29T20:01:15.478Z,100753.92
2018-01-29T20:03:44.845Z,100760.69
2018-01-29T20:06:13.622Z,100758.91
2018-01-29T20:08:42.947Z,100750.25
2018-01-29T20:11:11.462Z,100762.05
2018-01-29T20:13:40.940Z,100756.17
2018-01-29T20:16:09.504Z,100747.43
2018-01-29T20:18:38.005Z,100747.69
2018-01-29T20:21:06.652Z,100751.11
2018-01-29T20:23:35.207Z,100754.45
2018-01-29T20:26:03.727Z,100750.91
2018-01-29T20:28:32.522Z,100747.46
2018-01-29T20:31:01.096Z,100747.05
2018-01-29T20:33:29.645Z,100742.61
2018-01-29T20:35:58.572Z,100743.07
2018-01-29T20:38:27.099Z,100745.39
2018-01-29T20:40:56.428Z,100745.12
2018-01-29T20:43:25.316Z,100748.08
2018-01-29T20:45:53.824Z,100745.23
2018-01-29T20:48:22.360Z,100742.97
2018-01-29T20:50:51.206Z,100737.55
2018-01-29T20:53:19.768Z,100738.05
2018-01-29T20:55:48.276Z,100733.57
2018-01-29T20:58:17.052Z,100735.66
2018-01-29T21:00:45.551Z,100742.26
2018-01-29T21:03:14.920Z,100742.30
2018-01-29T21:05:43.459Z,100737.09
2018-01-29T21:08:12.786Z,100733.27
2018-01-29T21:10:41.345Z,100735.37
2018-01-29T21:13:10.847Z,100727.95
2018-01-29T21:15:40.171Z,100725.00
2018-01-29T21:18:08.673Z,100729.09
2018-01-29T21:20:37.228Z,100739.11
2018-01-29T21:23:05.728Z,100733.89
2018-01-29T21:25:34.604Z,100734.24
2018-01-29T21:28:03.151Z,100728.26
2018-01-29T21:30:31.672Z,100732.97
2018-01-29T21:33:00.227Z,100733.44
2018-01-29T21:35:29.740Z,100729.84
2018-01-29T21:37:59.007Z,100729.16
2018-01-29T21:40:27.515Z,100725.00
2018-01-29T21:42:56.887Z,100723.83
2018-01-29T21:45:25.388Z,100723.62
2018-01-29T21:47:53.892Z,100726.49
2018-01-29T21:50:23.204Z,100729.27
2018-01-29T21:52:51.691Z,100725.34
2018-01-29T21:55:20.253Z,100731.58
2018-01-29T21:57:49.744Z,100731.82
2018-01-29T22:00:18.239Z,100730.86
2018-01-29T22:02:47.564Z,100730.82
2018-01-29T22:05:16.419Z,100732.34
2018-01-29T22:07:44.973Z,100728.41
2018-01-29T22:10:13.466Z,100728.97
2018-01-29T22:12:42.008Z,100723.53
2018-01-29T22:15:10.523Z,100717.25
2018-01-29T22:17:39.023Z,100722.59
2018-01-29T22:20:07.572Z,100721.77
2018-01-29T22:22:36.105Z,100717.86
2018-01-29T22:25:05.440Z,100715.59
2018-01-29T22:27:34.127Z,100710.99
2018-01-29T22:30:02.623Z,100716.82
2018-01-29T22:32:31.122Z,100712.73
2018-01-29T22:34:59.686Z,100712.27
2018-01-29T22:37:28.259Z,100711.30
2018-01-29T22:39:56.818Z,100709.55
2018-01-29T22:42:25.536Z,100706.38
2018-01-29T22:44:54.025Z,100703.23
2018-01-29T22:47:22.576Z,100704.89
2018-01-29T22:49:51.180Z,100695.58
2018-01-29T22:52:19.671Z,100699.95
2018-01-29T22:54:48.220Z,100691.52
2018-01-29T22:57:17.075Z,100694.10
2018-01-29T22:59:45.660Z,100689.17
2018-01-29T23:02:14.143Z,100691.83
2018-01-29T23:04:43.020Z,100682.83
2018-01-29T23:07:11.515Z,100693.41
2018-01-29T23:09:40.776Z,100684.98
2018-01-29T23:12:09.606Z,100683.43
2018-01-29T23:14:38.929Z,100679.75
2018-01-29T23:17:07.483Z,100673.11
2018-01-29T23:19:36.119Z,100676.63
2018-01-29T23:22:04.616Z,100671.48
2018-01-29T23:24:33.171Z,100670.60
2018-01-29T23:27:01.714Z,100669.17
2018-01-29T23:29:31.041Z,100665.56
2018-01-29T23:31:59.597Z,100667.59
2018-01-29T23:34:28.199Z,100665.43
2018-01-29T23:36:57.452Z,100666.51
2018-01-29T23:39:26.005Z,100658.08
2018-01-29T23:41:54.822Z,100663.32
2018-01-29T23:44:24.189Z,100664.66
2018-01-29T23:46:52.739Z,100670.80
2018-01-29T23:49:21.327Z,100677.07
2018-01-29T23:51:50.592Z,100673.95
2018-01-29T23:54:19.099Z,100678.63
2018-01-29T23:56:48.067Z,100685.14
2018-01-29T23:59:16.571Z,100683.63
